createdAt,value
2017-08-13T00:01:02.312Z,117.4
2017-08-13T00:03:00.371Z,117.9
2017-08-13T00:03:59.971Z,117.6
2017-08-13T00:04:59.157Z,117.7
2017-08-13T00:05:58.239Z,117.7
2017-08-13T00:06:57.423Z,117.3
2017-08-13T00:07:57.002Z,117.2
2017-08-13T00:08:27.511Z,117.2
2017-08-13T00:08:58.002Z,117.7
2017-08-13T00:09:28.502Z,117.7
2017-08-13T00:09:59.002Z,117.9
2017-08-13T00:10:29.529Z,117.9
2017-08-13T00:11:53.754Z,118.3
2017-08-13T00:12:52.945Z,118.3
2017-08-13T00:13:52.121Z,118.8
2017-08-13T00:14:51.308Z,-5.8
2017-08-13T00:15:50.507Z,118.8
2017-08-13T00:16:50.201Z,-6
2017-08-13T00:17:49.377Z,118.9
2017-08-13T00:18:48.565Z,-5.7
2017-08-13T00:19:47.630Z,-5.8
2017-08-13T00:20:47.080Z,-5.8
2017-08-13T00:21:46.289Z,-5.7
2017-08-13T00:22:45.246Z,-5.9
2017-08-13T00:23:44.687Z,-5.6
2017-08-13T00:24:43.874Z,-5.6
2017-08-13T00:25:42.948Z,118.9
2017-08-13T00:26:42.652Z,-5.8
2017-08-13T00:27:13.038Z,-5.8
2017-08-13T00:28:40.916Z,-5.5
2017-08-13T00:29:40.113Z,-5.6
2017-08-13T00:30:39.302Z,-5.8
2017-08-13T00:31:38.868Z,-5.9
2017-08-13T00:32:37.822Z,-5.7
2017-08-13T00:33:37.017Z,-5.8
2017-08-13T00:34:36.200Z,-5.8
2017-08-13T00:35:35.388Z,118.9
2017-08-13T00:36:34.953Z,118.4
2017-08-13T00:37:34.136Z,118.2
2017-08-13T00:38:33.324Z,118.4
2017-08-13T00:39:32.509Z,118.6
2017-08-13T00:40:31.574Z,-5.9
2017-08-13T00:41:31.258Z,118.8
2017-08-13T00:42:30.323Z,118.7
2017-08-13T00:43:29.500Z,118.6
2017-08-13T00:44:28.590Z,118.8
2017-08-13T00:45:27.782Z,-6
2017-08-13T00:46:27.475Z,118.7
2017-08-13T00:47:26.714Z,-5.8
2017-08-13T00:48:25.901Z,-5.8
2017-08-13T00:48:56.392Z,-5.8
2017-08-13T00:49:26.787Z,-5.8
2017-08-13T00:49:57.279Z,-5.8
2017-08-13T00:50:27.780Z,-5.9
2017-08-13T00:50:58.274Z,-5.9
2017-08-13T00:52:22.513Z,118.4
2017-08-13T00:53:22.099Z,118.6
2017-08-13T00:54:21.295Z,118.7
2017-08-13T00:55:20.481Z,118.8
2017-08-13T00:56:19.670Z,118.7
2017-08-13T00:57:18.871Z,118.9
2017-08-13T00:58:17.967Z,118.9
2017-08-13T00:59:17.191Z,-5.8
2017-08-13T01:00:16.770Z,-5.7
2017-08-13T01:01:15.959Z,118.7
2017-08-13T01:01:46.230Z,118.7
2017-08-13T01:02:16.610Z,118.3
2017-08-13T01:03:14.285Z,118.4
2017-08-13T01:04:13.472Z,118.6
2017-08-13T01:05:13.053Z,118.6
2017-08-13T01:06:12.113Z,118.7
2017-08-13T01:07:11.174Z,118.6
2017-08-13T01:10:08.911Z,118.7
2017-08-13T01:11:08.260Z,118.9
2017-08-13T01:12:07.339Z,118.9
2017-08-13T01:13:06.905Z,-5.6
2017-08-13T01:14:06.086Z,-5.8
2017-08-13T01:15:05.326Z,-5.7
2017-08-13T01:16:04.406Z,-5.4
2017-08-13T01:17:03.862Z,-5.5
2017-08-13T01:18:02.918Z,-5.8
2017-08-13T01:19:01.986Z,-5.7
2017-08-13T01:20:01.181Z,-5.3
2017-08-13T01:20:31.577Z,-5.3
2017-08-13T01:21:59.953Z,-5.9
2017-08-13T01:22:59.153Z,118.7
2017-08-13T01:23:58.343Z,118.8
2017-08-13T01:24:57.816Z,-5.9
2017-08-13T01:25:56.884Z,-5.9
2017-08-13T01:26:56.067Z,-5.9
2017-08-13T01:27:55.251Z,118.9
2017-08-13T01:28:54.448Z,-5.8
2017-08-13T01:29:53.655Z,-5.4
2017-08-13T01:30:53.232Z,-5.4
2017-08-13T01:31:52.286Z,-5.1
2017-08-13T01:32:51.350Z,-5.2
2017-08-13T01:33:50.535Z,-4.8
2017-08-13T01:34:50.112Z,-5
2017-08-13T01:35:49.289Z,-5.1
2017-08-13T01:36:19.784Z,-5.1
2017-08-13T01:36:50.172Z,-5
2017-08-13T01:37:47.851Z,-5.1
2017-08-13T01:38:47.043Z,-5
2017-08-13T01:39:46.116Z,-4.8
2017-08-13T01:40:45.182Z,-4.8
2017-08-13T01:41:44.760Z,-4.9
2017-08-13T01:42:43.955Z,-4.7
2017-08-13T01:43:43.149Z,-4.3
2017-08-13T01:44:42.223Z,-4.7
2017-08-13T01:45:41.409Z,-4.3
2017-08-13T01:46:40.597Z,-4.5
2017-08-13T01:47:40.192Z,-4.3
2017-08-13T01:48:39.260Z,-4.1
2017-08-13T01:49:38.447Z,-4
2017-08-13T01:50:37.643Z,-3.9
2017-08-13T01:51:36.823Z,-3.9
2017-08-13T01:52:36.012Z,-3.5
2017-08-13T01:53:35.705Z,-3.7
2017-08-13T01:54:34.661Z,-3.5
2017-08-13T01:55:33.829Z,-3.5
2017-08-13T01:56:33.024Z,-3.3
2017-08-13T01:57:03.530Z,-3.3
2017-08-13T01:57:33.963Z,-3.1
2017-08-13T01:58:04.227Z,-3.1
2017-08-13T01:58:34.732Z,-3.3
2017-08-13T01:59:05.240Z,-3.3
2017-08-13T01:59:35.729Z,-3.1
2017-08-13T02:00:29.877Z,-3.2
2017-08-13T02:01:29.469Z,-3.2
2017-08-13T02:02:28.651Z,-3.3
2017-08-13T02:03:27.835Z,-3.2
2017-08-13T02:04:26.910Z,-3.1
2017-08-13T02:05:26.371Z,-3.2
2017-08-13T02:06:25.439Z,-3.1
2017-08-13T02:07:24.515Z,-3.4
2017-08-13T02:08:23.971Z,-3.3
2017-08-13T02:09:23.304Z,-3.2
2017-08-13T02:10:22.373Z,-3.2
2017-08-13T02:11:21.567Z,-3.3
2017-08-13T02:12:21.144Z,-3.4
2017-08-13T02:13:20.209Z,-3.4
2017-08-13T02:14:19.290Z,-3.5
2017-08-13T02:15:18.472Z,-3.4
2017-08-13T02:15:48.879Z,-3.4
2017-08-13T02:17:17.141Z,-3.2
2017-08-13T02:18:15.983Z,-3.2
2017-08-13T02:19:15.683Z,-2.6
2017-08-13T02:20:14.773Z,-2.8
2017-08-13T02:21:13.969Z,-2.7
2017-08-13T02:22:13.030Z,-2.8
2017-08-13T02:23:12.255Z,-2.8
2017-08-13T02:24:11.823Z,-2.6
2017-08-13T02:25:10.774Z,-2
2017-08-13T02:26:09.847Z,-2.5
2017-08-13T02:27:09.416Z,-2.7
2017-08-13T02:28:08.601Z,-2.6
2017-08-13T02:29:07.798Z,-2.9
2017-08-13T02:29:38.295Z,-2.9
2017-08-13T02:31:06.161Z,-3.1
2017-08-13T02:32:05.742Z,-3.1
2017-08-13T02:33:04.935Z,-2.9
2017-08-13T02:34:03.883Z,-2.6
2017-08-13T02:35:03.463Z,-2.8
2017-08-13T02:36:02.533Z,-2.9
2017-08-13T02:37:01.737Z,-2.7
2017-08-13T02:37:32.120Z,-2.7
2017-08-13T02:38:59.985Z,-3.1
2017-08-13T02:39:59.669Z,-2.7
2017-08-13T02:40:58.739Z,-2.8
2017-08-13T02:41:57.940Z,-2.7
2017-08-13T02:42:57.123Z,-3.3
2017-08-13T02:43:56.313Z,-3.4
2017-08-13T02:44:55.505Z,-3.6
2017-08-13T02:45:54.692Z,-3.5
2017-08-13T02:46:53.905Z,-3.5
2017-08-13T02:47:53.090Z,-3.6
2017-08-13T02:48:52.773Z,-3.7
2017-08-13T02:49:51.957Z,-3.5
2017-08-13T02:50:50.915Z,-3.3
2017-08-13T02:51:50.117Z,-3
2017-08-13T02:52:49.313Z,-3
2017-08-13T02:53:48.499Z,-3.1
2017-08-13T02:54:48.197Z,-2.7
2017-08-13T02:55:47.152Z,-2.6
2017-08-13T02:56:46.214Z,-2.4
2017-08-13T02:57:45.787Z,-2.5
2017-08-13T02:58:44.976Z,-2.5
2017-08-13T02:59:44.045Z,-3.1
2017-08-13T03:00:43.250Z,-3.5
2017-08-13T03:01:42.448Z,-4
2017-08-13T03:02:41.630Z,-4.3
2017-08-13T03:03:40.811Z,-4.2
2017-08-13T03:04:40.379Z,-4.6
2017-08-13T03:05:39.444Z,-4.2
2017-08-13T03:06:38.630Z,-4.7
2017-08-13T03:07:37.688Z,-5.1
2017-08-13T03:08:08.190Z,-5.1
2017-08-13T03:08:38.463Z,-5
2017-08-13T03:09:08.877Z,-5
2017-08-13T03:09:39.141Z,-5
2017-08-13T03:10:09.630Z,-5
2017-08-13T03:10:40.128Z,-5
2017-08-13T03:11:34.783Z,-5.2
2017-08-13T03:12:33.975Z,-5.3
2017-08-13T03:13:33.665Z,-5.2
2017-08-13T03:14:32.851Z,-5.1
2017-08-13T03:15:31.666Z,-4.8
2017-08-13T03:16:31.361Z,-4.7
2017-08-13T03:17:30.538Z,-4.8
2017-08-13T03:18:29.734Z,-4.7
2017-08-13T03:19:28.916Z,-5.1
2017-08-13T03:20:28.094Z,-4.9
2017-08-13T03:21:27.154Z,-5
2017-08-13T03:22:26.223Z,-4.8
2017-08-13T03:24:24.801Z,-4.9
2017-08-13T03:25:24.371Z,-4.8
2017-08-13T03:26:23.558Z,-4.4
2017-08-13T03:27:22.752Z,-4.7
2017-08-13T03:28:21.824Z,-4.6
2017-08-13T03:29:21.010Z,-4.3
2017-08-13T03:30:20.568Z,-4.5
2017-08-13T03:31:19.658Z,-4.6
2017-08-13T03:32:18.755Z,-4.5
2017-08-13T03:33:18.318Z,-4.3
2017-08-13T03:34:17.501Z,-4.7
2017-08-13T03:35:16.678Z,-4.7
2017-08-13T03:36:15.860Z,-4.1
2017-08-13T03:37:14.924Z,-4.6
2017-08-13T03:38:14.490Z,-4.6
2017-08-13T03:39:13.558Z,-4.2
2017-08-13T03:40:12.758Z,-4.2
2017-08-13T03:41:12.344Z,-3.8
2017-08-13T03:42:11.511Z,-4.2
2017-08-13T03:43:10.687Z,-4.4
2017-08-13T03:44:09.887Z,-4.3
2017-08-13T03:45:09.076Z,-4.4
2017-08-13T03:45:39.580Z,-4.4
2017-08-13T03:46:09.947Z,-4.3
2017-08-13T03:47:07.623Z,-4.1
2017-08-13T03:48:06.808Z,-4.3
2017-08-13T03:49:05.893Z,-4.3
2017-08-13T03:50:05.080Z,-4.2
2017-08-13T03:51:04.528Z,-4
2017-08-13T03:52:03.703Z,-4.1
2017-08-13T03:53:03.148Z,-3.7
2017-08-13T03:54:02.339Z,-3.9
2017-08-13T03:55:01.673Z,-3.8
2017-08-13T03:56:00.621Z,-4
2017-08-13T03:56:59.802Z,-3.8
2017-08-13T03:57:59.370Z,-4
2017-08-13T03:58:58.545Z,-3.9
2017-08-13T03:59:57.724Z,-3.6
2017-08-13T04:00:56.906Z,-3.7
2017-08-13T04:01:55.968Z,-3.4
2017-08-13T04:02:55.148Z,-3.5
2017-08-13T04:03:25.653Z,-3.5
2017-08-13T04:03:56.169Z,-3.7
2017-08-13T04:04:26.665Z,-3.7
2017-08-13T04:04:57.168Z,-3.9
2017-08-13T04:05:27.657Z,-3.9
2017-08-13T04:06:52.518Z,-3.4
2017-08-13T04:07:51.697Z,-3.8
2017-08-13T04:08:50.887Z,-4.3
2017-08-13T04:09:49.959Z,-4.2
2017-08-13T04:10:49.145Z,-3.8
2017-08-13T04:11:48.320Z,-3.9
2017-08-13T04:12:48.004Z,-3.8
2017-08-13T04:13:47.179Z,-3.7
2017-08-13T04:14:46.263Z,-3.8
2017-08-13T04:15:16.531Z,-3.8
2017-08-13T04:15:46.906Z,-3.8
2017-08-13T04:16:17.526Z,-3.8
2017-08-13T04:16:47.904Z,-3.8
2017-08-13T04:17:18.402Z,-3.8
2017-08-13T04:18:43.028Z,-3.9
2017-08-13T04:19:42.220Z,-3.8
2017-08-13T04:20:41.658Z,-3.8
2017-08-13T04:21:40.849Z,-3.8
2017-08-13T04:22:40.039Z,-3.8
2017-08-13T04:23:39.220Z,-3.6
2017-08-13T04:24:38.912Z,-3.4
2017-08-13T04:25:37.988Z,-3.5
2017-08-13T04:26:37.038Z,-3.4
2017-08-13T04:27:36.218Z,-3.4
2017-08-13T04:28:35.782Z,-3.5
2017-08-13T04:29:34.969Z,-3.2
2017-08-13T04:30:34.142Z,-3.4
2017-08-13T04:31:33.317Z,-3.5
2017-08-13T04:32:32.485Z,-3.4
2017-08-13T04:33:31.568Z,-3.4
2017-08-13T04:34:30.748Z,-3.5
2017-08-13T04:35:30.442Z,-3.2
2017-08-13T04:36:29.277Z,-3.5
2017-08-13T04:37:28.851Z,-3.4
2017-08-13T04:38:28.035Z,-3.6
2017-08-13T04:39:27.207Z,-3.4
2017-08-13T04:40:26.397Z,-3.5
2017-08-13T04:41:25.614Z,-3.5
2017-08-13T04:42:24.785Z,-3.3
2017-08-13T04:43:23.959Z,-3.1
2017-08-13T04:44:23.632Z,-3
2017-08-13T04:45:22.808Z,-3
2017-08-13T04:46:21.985Z,-3.1
2017-08-13T04:47:21.039Z,-3
2017-08-13T04:48:20.217Z,-2.8
2017-08-13T04:49:19.795Z,-2.6
2017-08-13T04:50:18.868Z,-2.7
2017-08-13T04:51:17.942Z,-2.7
2017-08-13T04:52:17.132Z,-2.8
2017-08-13T04:53:16.571Z,-3.1
2017-08-13T04:54:15.635Z,-3
2017-08-13T04:54:46.122Z,-3
2017-08-13T04:55:16.371Z,-2.8
2017-08-13T04:55:47.026Z,-2.8
2017-08-13T04:56:17.535Z,-2.6
2017-08-13T04:56:48.026Z,-2.6
2017-08-13T04:57:18.515Z,-2.5
2017-08-13T04:57:48.877Z,-2.5
2017-08-13T04:59:12.208Z,-2.6
2017-08-13T05:00:11.391Z,-2.8
2017-08-13T05:01:10.565Z,-2.3
2017-08-13T05:02:10.018Z,-2.6
2017-08-13T05:03:09.088Z,-3
2017-08-13T05:04:08.281Z,-2.8
2017-08-13T05:05:07.469Z,-3
2017-08-13T05:06:06.669Z,-3.3
2017-08-13T05:07:06.239Z,-2.9
2017-08-13T05:08:05.424Z,-2.7
2017-08-13T05:09:04.489Z,-3
2017-08-13T05:10:03.831Z,-2.9
2017-08-13T05:11:03.011Z,-3.2
2017-08-13T05:12:02.187Z,-3.1
2017-08-13T05:13:01.240Z,-3.2
2017-08-13T05:14:00.930Z,-3.5
2017-08-13T05:15:00.123Z,-3.4
2017-08-13T05:15:59.303Z,-3.1
2017-08-13T05:16:58.463Z,-3.1
2017-08-13T05:17:57.519Z,-2.9
2017-08-13T05:18:56.737Z,-3
2017-08-13T05:19:55.911Z,-3
2017-08-13T05:20:55.592Z,-2.3
2017-08-13T05:21:54.657Z,-3.1
2017-08-13T05:22:53.718Z,-3.1
2017-08-13T05:23:52.911Z,-3
2017-08-13T05:24:52.577Z,-2.9
2017-08-13T05:25:51.633Z,-3.1
2017-08-13T05:26:50.726Z,-3.2
2017-08-13T05:27:21.209Z,-3.2
2017-08-13T05:27:51.579Z,-2.8
2017-08-13T05:28:49.269Z,-2.4
2017-08-13T05:29:48.465Z,-2.6
2017-08-13T05:30:47.649Z,-2.4
2017-08-13T05:31:47.111Z,-2.3
2017-08-13T05:32:46.286Z,-2.1
2017-08-13T05:33:45.468Z,-2.2
2017-08-13T05:34:45.037Z,-1.8
2017-08-13T05:35:44.218Z,-1.3
2017-08-13T05:36:43.391Z,-1
2017-08-13T05:37:42.466Z,-0.6
2017-08-13T05:38:42.034Z,-0.1
2017-08-13T05:39:41.093Z,-0.1
2017-08-13T05:40:40.264Z,-0.1
2017-08-13T05:41:39.329Z,0
2017-08-13T05:42:39.000Z,1.1
2017-08-13T05:43:38.072Z,1.8
2017-08-13T05:44:37.256Z,1.8
2017-08-13T05:45:36.448Z,2.3
2017-08-13T05:46:35.634Z,3.5
2017-08-13T05:47:35.368Z,4.1
2017-08-13T05:48:34.058Z,3.8
2017-08-13T05:49:33.750Z,4.4
2017-08-13T05:50:32.701Z,5.1
2017-08-13T05:51:31.772Z,5.9
2017-08-13T05:52:02.530Z,5.9
2017-08-13T05:52:32.907Z,5.7
2017-08-13T05:53:03.152Z,5.7
2017-08-13T05:53:33.650Z,5.8
2017-08-13T05:54:29.711Z,6.6
2017-08-13T05:55:28.797Z,7
2017-08-13T05:56:28.247Z,7.1
2017-08-13T05:57:27.310Z,7.5
2017-08-13T05:58:26.493Z,7.9
2017-08-13T05:59:25.691Z,7.7
2017-08-13T06:00:25.250Z,7.8
2017-08-13T06:01:24.316Z,8.6
2017-08-13T06:01:54.825Z,8.6
2017-08-13T06:02:25.330Z,9.1
2017-08-13T06:02:55.721Z,9.1
2017-08-13T06:03:26.097Z,9.3
2017-08-13T06:03:56.578Z,9.3
2017-08-13T06:04:27.064Z,9.3
2017-08-13T06:04:57.451Z,9.3
2017-08-13T06:06:20.671Z,9.2
2017-08-13T06:07:19.733Z,9.5
2017-08-13T06:08:19.297Z,10
2017-08-13T06:09:18.479Z,9.9
2017-08-13T06:10:17.665Z,9.5
2017-08-13T06:11:17.112Z,9.5
2017-08-13T06:12:16.304Z,9.5
2017-08-13T06:13:15.257Z,10.1
2017-08-13T06:14:14.326Z,10.3
2017-08-13T06:15:14.015Z,10.1
2017-08-13T06:16:13.193Z,10
2017-08-13T06:17:12.153Z,10
2017-08-13T06:18:11.328Z,10.7
2017-08-13T06:19:11.018Z,11.1
2017-08-13T06:20:10.107Z,11
2017-08-13T06:21:09.312Z,10.1
2017-08-13T06:21:39.807Z,10.1
2017-08-13T06:23:07.672Z,10.1
2017-08-13T06:24:07.137Z,10.8
2017-08-13T06:25:06.321Z,11.1
2017-08-13T06:26:05.511Z,11.2
2017-08-13T06:27:04.712Z,11.9
2017-08-13T06:28:03.770Z,12.3
2017-08-13T06:29:03.335Z,12.7
2017-08-13T06:30:02.517Z,12.8
2017-08-13T06:31:01.850Z,13.1
2017-08-13T06:32:01.035Z,13
2017-08-13T06:33:00.222Z,13
2017-08-13T06:33:59.421Z,13.3
2017-08-13T06:34:58.605Z,13.1
2017-08-13T06:35:58.193Z,13.2
2017-08-13T06:36:57.385Z,13.4
2017-08-13T06:37:56.465Z,13.8
2017-08-13T06:38:55.649Z,13.3
2017-08-13T06:39:54.838Z,13.5
2017-08-13T06:40:54.020Z,13.3
2017-08-13T06:41:53.595Z,13.6
2017-08-13T06:42:52.780Z,13.6
2017-08-13T06:43:23.274Z,13.6
2017-08-13T06:43:53.648Z,13.8
2017-08-13T06:44:24.011Z,13.8
2017-08-13T06:45:50.534Z,14.3
2017-08-13T06:46:49.722Z,14.5
2017-08-13T06:47:48.911Z,14.3
2017-08-13T06:48:47.983Z,14.3
2017-08-13T06:49:47.567Z,14.1
2017-08-13T06:50:46.632Z,14.6
2017-08-13T06:51:45.833Z,14.7
2017-08-13T06:52:44.880Z,14.9
2017-08-13T06:53:44.582Z,14.7
2017-08-13T06:54:43.757Z,14.7
2017-08-13T06:55:42.929Z,15
2017-08-13T06:56:13.422Z,15
2017-08-13T06:56:43.685Z,15.3
2017-08-13T06:57:41.358Z,15.3
2017-08-13T06:58:40.534Z,15.3
2017-08-13T06:59:39.588Z,15.5
2017-08-13T07:00:39.177Z,15.6
2017-08-13T07:01:38.130Z,15.7
2017-08-13T07:02:37.712Z,15.7
2017-08-13T07:03:36.778Z,15.8
2017-08-13T07:04:35.854Z,16.1
2017-08-13T07:05:35.432Z,16.3
2017-08-13T07:06:34.400Z,16.4
2017-08-13T07:07:33.975Z,16.6
2017-08-13T07:08:33.032Z,16.7
2017-08-13T07:09:32.201Z,16.8
2017-08-13T07:10:31.656Z,16.9
2017-08-13T07:11:30.848Z,16.9
2017-08-13T07:12:29.896Z,15.8
2017-08-13T07:13:29.093Z,16.1
2017-08-13T07:14:28.658Z,16.7
2017-08-13T07:14:59.146Z,16.7
2017-08-13T07:15:29.648Z,16.9
2017-08-13T07:16:00.151Z,16.9
2017-08-13T07:17:25.881Z,16.8
2017-08-13T07:18:25.577Z,16.7
2017-08-13T07:19:24.524Z,16.8
2017-08-13T07:20:23.727Z,16.7
2017-08-13T07:21:23.413Z,17.1
2017-08-13T07:22:22.361Z,17.1
2017-08-13T07:23:21.938Z,15.9
2017-08-13T07:24:21.010Z,15.7
2017-08-13T07:25:20.089Z,15.9
2017-08-13T07:26:19.153Z,16
2017-08-13T07:27:18.857Z,16.4
2017-08-13T07:28:18.036Z,16.7
2017-08-13T07:29:17.226Z,17
2017-08-13T07:30:16.166Z,17.2
2017-08-13T07:30:46.675Z,17.2
2017-08-13T07:31:17.049Z,17
2017-08-13T07:32:14.719Z,17.4
2017-08-13T07:33:14.412Z,17
2017-08-13T07:34:13.477Z,16.7
2017-08-13T07:35:12.572Z,16.2
2017-08-13T07:36:12.145Z,16.2
2017-08-13T07:37:11.332Z,16.3
2017-08-13T07:38:10.411Z,16.3
2017-08-13T07:39:09.588Z,16.5
2017-08-13T07:40:09.168Z,15.9
2017-08-13T07:42:07.246Z,16.4
2017-08-13T07:43:06.957Z,16.7
2017-08-13T07:44:06.036Z,16.6
2017-08-13T07:45:05.227Z,16
2017-08-13T07:46:04.446Z,16.2
2017-08-13T07:47:03.903Z,16.2
2017-08-13T07:48:02.974Z,15.4
2017-08-13T07:49:02.225Z,16.1
2017-08-13T07:50:01.400Z,16.3
2017-08-13T07:51:00.975Z,15.5
2017-08-13T07:51:31.478Z,15.5
2017-08-13T07:52:59.358Z,15.6
2017-08-13T07:53:58.548Z,15.3
2017-08-13T07:54:57.732Z,15.7
2017-08-13T07:55:56.904Z,16
2017-08-13T07:56:56.085Z,16.2
2017-08-13T07:57:55.652Z,14.8
2017-08-13T07:58:54.859Z,14.7
2017-08-13T07:59:53.799Z,14.6
2017-08-13T08:00:53.494Z,14.9
2017-08-13T08:01:52.557Z,15.3
2017-08-13T08:02:51.623Z,15.8
2017-08-13T08:03:51.319Z,16.1
2017-08-13T08:04:50.515Z,14.8
2017-08-13T08:05:49.689Z,14.7
2017-08-13T08:06:48.876Z,15
2017-08-13T08:07:48.062Z,15.3
2017-08-13T08:08:47.126Z,15.6
2017-08-13T08:09:46.470Z,16.3
2017-08-13T08:10:16.734Z,16.3
2017-08-13T08:10:47.121Z,15.9
2017-08-13T08:11:17.513Z,15.9
2017-08-13T08:11:47.882Z,15
2017-08-13T08:12:18.371Z,15
2017-08-13T08:12:48.773Z,14.9
2017-08-13T08:13:43.836Z,14.4
2017-08-13T08:14:42.900Z,14.6
2017-08-13T08:15:42.095Z,14.8
2017-08-13T08:16:41.159Z,15.9
2017-08-13T08:17:40.844Z,15.8
2017-08-13T08:18:39.801Z,15.7
2017-08-13T08:19:39.256Z,14.7
2017-08-13T08:20:38.328Z,13.8
2017-08-13T08:21:37.514Z,13
2017-08-13T08:22:08.025Z,13
2017-08-13T08:22:38.506Z,13.8
2017-08-13T08:23:09.018Z,13.8
2017-08-13T08:23:39.408Z,14.7
2017-08-13T08:24:09.779Z,14.7
2017-08-13T08:25:34.779Z,14.1
2017-08-13T08:26:34.226Z,14.4
2017-08-13T08:27:33.411Z,14.8
2017-08-13T08:28:32.608Z,13.6
2017-08-13T08:29:31.791Z,12.9
2017-08-13T08:30:30.856Z,10.9
2017-08-13T08:31:30.215Z,11.6
2017-08-13T08:32:29.398Z,12.1
2017-08-13T08:33:28.851Z,12.8
2017-08-13T08:34:28.412Z,12.9
2017-08-13T08:35:27.597Z,13.5
2017-08-13T08:36:26.799Z,14
2017-08-13T08:37:25.971Z,14
2017-08-13T08:38:25.296Z,12.7
2017-08-13T08:39:24.247Z,13.7
2017-08-13T08:40:23.584Z,11.7
2017-08-13T08:41:23.279Z,12.1
2017-08-13T08:42:22.505Z,13.4
2017-08-13T08:43:21.452Z,13
2017-08-13T08:44:20.627Z,13.3
2017-08-13T08:45:20.075Z,13.8
2017-08-13T08:46:19.152Z,13.5
2017-08-13T08:47:18.842Z,13.8
2017-08-13T08:48:17.796Z,13.8
2017-08-13T08:49:17.368Z,13.7
2017-08-13T08:50:16.559Z,13.3
2017-08-13T08:51:15.627Z,13.7
2017-08-13T08:52:14.819Z,13.7
2017-08-13T08:53:14.392Z,13
2017-08-13T08:54:13.484Z,11.6
2017-08-13T08:55:12.559Z,12.4
2017-08-13T08:56:12.135Z,12.5
2017-08-13T08:57:11.328Z,14.1
2017-08-13T08:58:10.519Z,12.9
2017-08-13T08:59:09.970Z,13.4
2017-08-13T09:00:09.148Z,13.9
2017-08-13T09:01:08.345Z,13.8
2017-08-13T09:02:07.920Z,13.3
2017-08-13T09:02:38.411Z,13.3
2017-08-13T09:03:08.961Z,13.5
2017-08-13T09:03:39.456Z,13.5
2017-08-13T09:04:09.832Z,13.3
2017-08-13T09:04:40.324Z,13.3
2017-08-13T09:06:04.732Z,12.7
2017-08-13T09:07:03.679Z,12.1
2017-08-13T09:08:03.379Z,12.5
2017-08-13T09:09:02.565Z,12.4
2017-08-13T09:10:01.624Z,11.9
2017-08-13T09:11:00.978Z,10.3
2017-08-13T09:12:00.448Z,11.7
2017-08-13T09:12:59.628Z,12.4
2017-08-13T09:13:58.813Z,11.8
2017-08-13T09:14:58.013Z,12.2
2017-08-13T09:15:57.583Z,10.5
2017-08-13T09:16:56.760Z,10.5
2017-08-13T09:17:55.959Z,7.6
2017-08-13T09:18:55.137Z,7.2
2017-08-13T09:19:54.307Z,8.5
2017-08-13T09:20:53.883Z,9.5
2017-08-13T09:21:52.958Z,10.4
2017-08-13T09:22:52.124Z,12
2017-08-13T09:23:51.810Z,12.6
2017-08-13T09:24:50.657Z,11.7
2017-08-13T09:25:50.340Z,8.4
2017-08-13T09:26:49.524Z,8.7
2017-08-13T09:27:48.585Z,8.4
2017-08-13T09:28:48.204Z,8.4
2017-08-13T09:29:47.379Z,5.3
2017-08-13T09:30:46.454Z,5.7
2017-08-13T09:31:46.019Z,6.8
2017-08-13T09:32:45.204Z,8.2
2017-08-13T09:33:44.269Z,4.5
2017-08-13T09:34:43.332Z,4.5
2017-08-13T09:35:43.049Z,5.5
2017-08-13T09:36:42.108Z,4.7
2017-08-13T09:37:41.688Z,5.7
2017-08-13T09:38:40.865Z,3.8
2017-08-13T09:40:39.439Z,0.4
2017-08-13T09:41:38.393Z,-0.7
2017-08-13T09:42:38.081Z,2.2
2017-08-13T09:43:37.031Z,2.2
2017-08-13T09:44:36.218Z,3
2017-08-13T09:45:35.925Z,5.6
2017-08-13T09:46:35.130Z,3.6
2017-08-13T09:47:34.094Z,2.8
2017-08-13T09:48:33.275Z,2.6
2017-08-13T09:49:32.965Z,3.8
2017-08-13T09:50:32.023Z,1.8
2017-08-13T09:51:31.208Z,-4.8
2017-08-13T09:52:30.666Z,-1.3
2017-08-13T09:53:29.732Z,-0.3
2017-08-13T09:54:29.178Z,-0.5
2017-08-13T09:55:28.236Z,-0.6
2017-08-13T09:56:27.813Z,-0.5
2017-08-13T09:59:25.798Z,0
2017-08-13T10:01:24.262Z,-1.3
2017-08-13T10:02:23.445Z,-0.6
2017-08-13T10:03:22.634Z,-0.6
2017-08-13T10:04:22.115Z,-1.2
2017-08-13T10:05:21.289Z,0.9
2017-08-13T10:06:20.487Z,3.5
2017-08-13T10:07:19.585Z,4.7
2017-08-13T10:08:19.273Z,4.1
2017-08-13T10:09:18.338Z,5
2017-08-13T10:09:48.698Z,5
2017-08-13T10:10:19.188Z,6.3
2017-08-13T10:10:49.446Z,6.3
2017-08-13T10:11:19.924Z,6.8
2017-08-13T10:11:50.192Z,6.8
2017-08-13T10:13:15.548Z,4.4
2017-08-13T10:14:14.616Z,4.7
2017-08-13T10:15:13.798Z,5.1
2017-08-13T10:16:13.586Z,3
2017-08-13T10:17:12.523Z,4.1
2017-08-13T10:18:11.714Z,5.3
2017-08-13T10:20:10.272Z,5
2017-08-13T10:21:09.475Z,-0.9
2017-08-13T10:22:08.863Z,0.5
2017-08-13T10:23:08.432Z,2.8
2017-08-13T10:24:07.368Z,0.5
2017-08-13T10:25:06.541Z,2.8
2017-08-13T10:26:06.112Z,1.1
2017-08-13T10:27:05.183Z,-2.4
2017-08-13T10:28:04.631Z,-0.4
2017-08-13T10:29:04.074Z,0.6
2017-08-13T10:30:03.018Z,2.7
2017-08-13T10:31:02.236Z,3.7
2017-08-13T10:32:01.694Z,4.5
2017-08-13T10:33:00.881Z,-0.4
2017-08-13T10:33:59.948Z,-1.3
2017-08-13T10:34:59.638Z,-0.6
2017-08-13T10:35:58.693Z,-2.6
2017-08-13T10:36:57.873Z,-0.7
2017-08-13T10:37:57.556Z,1.6
2017-08-13T10:38:56.743Z,0.5
2017-08-13T10:39:55.926Z,0.7
2017-08-13T10:40:55.097Z,-0.9
2017-08-13T10:41:54.362Z,0.7
2017-08-13T10:42:53.547Z,-5.1
2017-08-13T10:43:53.238Z,118.1
2017-08-13T10:44:52.432Z,-3.7
2017-08-13T10:45:51.618Z,-4.6
2017-08-13T10:46:50.794Z,-3.3
2017-08-13T10:47:50.132Z,-1.9
2017-08-13T10:48:49.319Z,-5.1
2017-08-13T10:49:48.494Z,-3.9
2017-08-13T10:50:18.869Z,-3.9
2017-08-13T10:50:49.244Z,-2.2
2017-08-13T10:51:19.730Z,-2.2
2017-08-13T10:52:46.587Z,-0.7
2017-08-13T10:53:45.766Z,-0.6
2017-08-13T10:54:44.944Z,1.5
2017-08-13T10:55:44.406Z,4.7
2017-08-13T10:56:43.578Z,3
2017-08-13T10:57:43.146Z,3
2017-08-13T10:58:42.333Z,4.5
2017-08-13T10:59:41.284Z,5.7
2017-08-13T11:00:40.968Z,0.8
2017-08-13T11:01:40.140Z,0
2017-08-13T11:02:39.334Z,-2.5
2017-08-13T11:03:09.712Z,-2.5
2017-08-13T11:03:40.196Z,-0.3
2017-08-13T11:04:10.556Z,-0.3
2017-08-13T11:04:40.930Z,-2.1
2017-08-13T11:05:36.978Z,-3.4
2017-08-13T11:06:36.165Z,-3.5
2017-08-13T11:07:35.620Z,-3.9
2017-08-13T11:08:34.807Z,-3.3
2017-08-13T11:09:33.997Z,-3.2
2017-08-13T11:10:33.569Z,-3.7
2017-08-13T11:11:32.749Z,-0.6
2017-08-13T11:12:31.923Z,-1.7
2017-08-13T11:13:31.384Z,-1.7
2017-08-13T11:14:30.444Z,-4.2
2017-08-13T11:15:30.152Z,-2.6
2017-08-13T11:16:29.218Z,-3.8
2017-08-13T11:17:28.280Z,-0.4
2017-08-13T11:18:27.854Z,1
2017-08-13T11:19:26.921Z,0
2017-08-13T11:20:26.105Z,0.4
2017-08-13T11:21:25.794Z,1.4
2017-08-13T11:22:24.853Z,2
2017-08-13T11:22:55.386Z,2
2017-08-13T11:23:25.775Z,1.4
2017-08-13T11:24:23.718Z,1.7
2017-08-13T11:25:22.895Z,4.2
2017-08-13T11:26:21.973Z,3.7
2017-08-13T11:27:21.177Z,4.1
2017-08-13T11:28:20.248Z,2
2017-08-13T11:29:19.828Z,1.3
2017-08-13T11:30:19.395Z,-1.7
2017-08-13T11:31:18.461Z,0.2
2017-08-13T11:32:17.643Z,-0.2
2017-08-13T11:33:17.185Z,2
2017-08-13T11:34:16.004Z,1.7
2017-08-13T11:35:15.488Z,2.1
2017-08-13T11:37:14.325Z,-0.2
2017-08-13T11:38:13.505Z,0
2017-08-13T11:39:12.584Z,0
2017-08-13T11:40:12.043Z,-1.2
2017-08-13T11:41:11.233Z,-2.1
2017-08-13T11:42:10.405Z,-2.4
2017-08-13T11:43:10.121Z,-3.9
2017-08-13T11:45:08.710Z,-2.8
2017-08-13T11:46:07.899Z,-2.6
2017-08-13T11:47:07.084Z,-4.2
2017-08-13T11:48:06.266Z,-4.6
2017-08-13T11:49:05.604Z,-5.4
2017-08-13T11:50:04.790Z,-4.1
2017-08-13T11:51:04.362Z,116.6
2017-08-13T11:52:03.570Z,117.8
2017-08-13T11:53:02.635Z,117.1
2017-08-13T11:54:02.322Z,117
2017-08-13T11:55:01.402Z,117.5
2017-08-13T11:56:00.586Z,116.7
2017-08-13T11:56:59.780Z,-4.9
2017-08-13T11:57:59.227Z,-4.7
2017-08-13T11:58:29.717Z,-4.7
2017-08-13T11:59:00.217Z,-4.3
2017-08-13T11:59:30.712Z,-4.3
2017-08-13T12:00:01.203Z,-3.4
2017-08-13T12:00:31.588Z,-3.4
2017-08-13T12:01:02.094Z,-1.2
2017-08-13T12:01:32.576Z,-1.2
2017-08-13T12:02:55.919Z,115.3
2017-08-13T12:03:54.980Z,108.8
2017-08-13T12:04:54.178Z,106.5
2017-08-13T12:05:53.367Z,107.3
2017-08-13T12:06:53.067Z,108.5
2017-08-13T12:07:52.124Z,107.1
2017-08-13T12:08:51.687Z,109.6
2017-08-13T12:09:50.859Z,106.7
2017-08-13T12:10:49.792Z,104
2017-08-13T12:11:20.053Z,104
2017-08-13T12:11:50.436Z,106.1
2017-08-13T12:12:48.496Z,104.5
2017-08-13T12:13:47.674Z,102.2
2017-08-13T12:14:47.247Z,100.7
2017-08-13T12:15:46.439Z,107.1
2017-08-13T12:16:45.776Z,105.5
2017-08-13T12:17:44.959Z,106.4
2017-08-13T12:18:15.335Z,106.4
2017-08-13T12:18:45.842Z,103.8
2017-08-13T12:19:43.891Z,101.1
2017-08-13T12:20:43.078Z,102.5
2017-08-13T12:21:42.267Z,106.1
2017-08-13T12:23:41.113Z,101.1
2017-08-13T12:24:40.304Z,106.1
2017-08-13T12:25:39.489Z,102.9
2017-08-13T12:26:38.551Z,100.7
2017-08-13T12:27:38.241Z,102.3
2017-08-13T12:28:37.315Z,103.7
2017-08-13T12:29:07.566Z,103.7
2017-08-13T12:29:38.202Z,102.2
2017-08-13T12:30:08.581Z,102.2
2017-08-13T12:30:38.972Z,100.9
2017-08-13T12:31:09.475Z,100.9
2017-08-13T12:32:34.649Z,100.2
2017-08-13T12:33:33.828Z,102.1
2017-08-13T12:34:33.002Z,100
2017-08-13T12:35:32.179Z,99.8
2017-08-13T12:36:31.756Z,103.2
2017-08-13T12:37:30.829Z,103.2
2017-08-13T12:38:30.148Z,104.1